sensor_id;sensor_type;location;lat;lon;timestamp;P1;durP1;ratioP1;P2;durP2;ratioP2
8568;SDS011;4322;51.104;-4.162;2022-12-11T16:02:46;1.60;;;1.60;;
8568;SDS011;4322;51.104;-4.162;2022-12-11T16:05:15;2.00;;;2.00;;
8568;SDS011;4322;51.104;-4.162;2022-12-11T16:07:43;1.90;;;1.90;;
8568;SDS011;4322;51.104;-4.162;2022-12-11T16:10:12;2.00;;;2.00;;
8568;SDS011;4322;51.104;-4.162;2022-12-11T16:12:42;2.00;;;2.00;;
8568;SDS011;4322;51.104;-4.162;2022-12-11T16:15:11;2.30;;;2.20;;
8568;SDS011;4322;51.104;-4.162;2022-12-11T16:17:57;2.40;;;2.30;;
8568;SDS011;4322;51.104;-4.162;2022-12-11T16:20:26;2.40;;;2.30;;
8568;SDS011;4322;51.104;-4.162;2022-12-11T16:22:55;2.60;;;2.50;;
8568;SDS011;4322;51.104;-4.162;2022-12-11T16:25:23;2.70;;;2.60;;
8568;SDS011;4322;51.104;-4.162;2022-12-11T16:27:53;2.90;;;2.80;;
8568;SDS011;4322;51.104;-4.162;2022-12-11T16:30:22;2.93;;;2.83;;
8568;SDS011;4322;51.104;-4.162;2022-12-11T16:32:52;2.70;;;2.60;;
8568;SDS011;4322;51.104;-4.162;2022-12-11T16:35:20;3.10;;;3.00;;
8568;SDS011;4322;51.104;-4.162;2022-12-11T16:37:49;2.70;;;2.60;;
8568;SDS011;4322;51.104;-4.162;2022-12-11T16:40:18;3.20;;;3.10;;
8568;SDS011;4322;51.104;-4.162;2022-12-11T16:42:47;3.20;;;3.10;;
8568;SDS011;4322;51.104;-4.162;2022-12-11T16:45:16;2.90;;;2.80;;
8568;SDS011;4322;51.104;-4.162;2022-12-11T16:47:46;3.00;;;2.90;;
8568;SDS011;4322;51.104;-4.162;2022-12-11T16:50:15;3.10;;;3.00;;
8568;SDS011;4322;51.104;-4.162;2022-12-11T16:52:44;2.80;;;2.70;;
8568;SDS011;4322;51.104;-4.162;2022-12-11T16:55:12;2.70;;;2.60;;
8568;SDS011;4322;51.104;-4.162;2022-12-11T16:57:41;3.00;;;2.90;;
8568;SDS011;4322;51.104;-4.162;2022-12-11T17:00:09;3.20;;;3.10;;
8568;SDS011;4322;51.104;-4.162;2022-12-11T17:02:39;2.90;;;2.80;;
8568;SDS011;4322;51.104;-4.162;2022-12-11T17:05:07;3.00;;;2.90;;
8568;SDS011;4322;51.104;-4.162;2022-12-11T17:07:37;3.00;;;2.90;;
8568;SDS011;4322;51.104;-4.162;2022-12-11T17:10:06;3.10;;;3.00;;
8568;SDS011;4322;51.104;-4.162;2022-12-11T17:12:34;3.20;;;3.10;;
8568;SDS011;4322;51.104;-4.162;2022-12-11T17:15:03;3.10;;;3.00;;
8568;SDS011;4322;51.104;-4.162;2022-12-11T17:17:32;3.10;;;3.00;;
8568;SDS011;4322;51.104;-4.162;2022-12-11T17:20:00;3.70;;;3.60;;
8568;SDS011;4322;51.104;-4.162;2022-12-11T17:22:28;3.40;;;3.30;;
8568;SDS011;4322;51.104;-4.162;2022-12-11T17:24:57;3.30;;;3.20;;
8568;SDS011;4322;51.104;-4.162;2022-12-11T17:27:25;3.70;;;3.60;;
8568;SDS011;4322;51.104;-4.162;2022-12-11T17:29:53;3.50;;;3.40;;
8568;SDS011;4322;51.104;-4.162;2022-12-11T17:32:21;3.67;;;3.57;;
8568;SDS011;4322;51.104;-4.162;2022-12-11T17:34:49;3.50;;;3.40;;
8568;SDS011;4322;51.104;-4.162;2022-12-11T17:37:17;3.60;;;3.50;;
8568;SDS011;4322;51.104;-4.162;2022-12-11T17:39:46;3.20;;;3.10;;
8568;SDS011;4322;51.104;-4.162;2022-12-11T17:42:15;3.10;;;3.00;;
8568;SDS011;4322;51.104;-4.162;2022-12-11T17:44:43;3.60;;;3.50;;
8568;SDS011;4322;51.104;-4.162;2022-12-11T17:47:12;3.77;;;3.67;;
8568;SDS011;4322;51.104;-4.162;2022-12-11T17:49:40;3.83;;;3.73;;
8568;SDS011;4322;51.104;-4.162;2022-12-11T17:52:08;3.10;;;3.00;;
8568;SDS011;4322;51.104;-4.162;2022-12-11T17:54:36;3.23;;;3.13;;
8568;SDS011;4322;51.104;-4.162;2022-12-11T17:57:05;3.60;;;3.50;;
8568;SDS011;4322;51.104;-4.162;2022-12-11T17:59:35;3.80;;;3.70;;
8568;SDS011;4322;51.104;-4.162;2022-12-11T18:02:03;3.27;;;3.17;;
8568;SDS011;4322;51.104;-4.162;2022-12-11T18:04:31;3.50;;;3.40;;
8568;SDS011;4322;51.104;-4.162;2022-12-11T18:06:59;3.40;;;3.30;;
8568;SDS011;4322;51.104;-4.162;2022-12-11T18:09:27;3.40;;;3.30;;
8568;SDS011;4322;51.104;-4.162;2022-12-11T18:11:55;3.60;;;3.50;;
8568;SDS011;4322;51.104;-4.162;2022-12-11T18:14:23;4.10;;;3.90;;
8568;SDS011;4322;51.104;-4.162;2022-12-11T18:16:52;3.23;;;3.13;;
8568;SDS011;4322;51.104;-4.162;2022-12-11T18:19:20;2.93;;;2.83;;
8568;SDS011;4322;51.104;-4.162;2022-12-11T18:21:50;3.57;;;3.47;;
8568;SDS011;4322;51.104;-4.162;2022-12-11T18:24:18;3.90;;;3.80;;
8568;SDS011;4322;51.104;-4.162;2022-12-11T18:26:47;3.70;;;3.60;;
8568;SDS011;4322;51.104;-4.162;2022-12-11T18:29:15;2.70;;;2.60;;
8568;SDS011;4322;51.104;-4.162;2022-12-11T18:31:43;2.70;;;2.60;;
8568;SDS011;4322;51.104;-4.162;2022-12-11T18:34:12;3.20;;;3.10;;
8568;SDS011;4322;51.104;-4.162;2022-12-11T18:36:40;3.20;;;3.10;;
8568;SDS011;4322;51.104;-4.162;2022-12-11T18:39:08;3.47;;;3.37;;
8568;SDS011;4322;51.104;-4.162;2022-12-11T18:41:36;3.50;;;3.40;;
8568;SDS011;4322;51.104;-4.162;2022-12-11T18:44:05;2.63;;;2.53;;
8568;SDS011;4322;51.104;-4.162;2022-12-11T18:46:35;3.90;;;3.80;;
8568;SDS011;4322;51.104;-4.162;2022-12-11T18:49:05;3.60;;;3.50;;
8568;SDS011;4322;51.104;-4.162;2022-12-11T18:51:34;2.90;;;2.80;;
8568;SDS011;4322;51.104;-4.162;2022-12-11T18:54:02;2.80;;;2.70;;
8568;SDS011;4322;51.104;-4.162;2022-12-11T18:56:31;3.30;;;3.20;;
8568;SDS011;4322;51.104;-4.162;2022-12-11T18:58:59;3.40;;;3.30;;
8568;SDS011;4322;51.104;-4.162;2022-12-11T19:01:27;3.40;;;3.30;;
8568;SDS011;4322;51.104;-4.162;2022-12-11T19:03:59;3.00;;;2.90;;
8568;SDS011;4322;51.104;-4.162;2022-12-11T19:06:37;3.20;;;3.10;;
8568;SDS011;4322;51.104;-4.162;2022-12-11T19:09:05;3.30;;;3.20;;
8568;SDS011;4322;51.104;-4.162;2022-12-11T19:11:35;3.20;;;3.10;;
8568;SDS011;4322;51.104;-4.162;2022-12-11T19:14:06;3.00;;;2.90;;
8568;SDS011;4322;51.104;-4.162;2022-12-11T19:16:35;3.30;;;3.20;;
8568;SDS011;4322;51.104;-4.162;2022-12-11T19:19:05;2.93;;;2.83;;
8568;SDS011;4322;51.104;-4.162;2022-12-11T19:21:37;3.40;;;3.30;;
8568;SDS011;4322;51.104;-4.162;2022-12-11T19:24:07;3.53;;;3.43;;
8568;SDS011;4322;51.104;-4.162;2022-12-11T19:26:36;3.40;;;3.30;;
8568;SDS011;4322;51.104;-4.162;2022-12-11T19:29:07;3.60;;;3.50;;
8568;SDS011;4322;51.104;-4.162;2022-12-11T19:31:35;3.50;;;3.40;;
8568;SDS011;4322;51.104;-4.162;2022-12-11T19:34:03;2.90;;;2.80;;
8568;SDS011;4322;51.104;-4.162;2022-12-11T19:36:31;3.40;;;3.30;;
8568;SDS011;4322;51.104;-4.162;2022-12-11T19:39:03;3.27;;;3.17;;
8568;SDS011;4322;51.104;-4.162;2022-12-11T19:41:38;3.60;;;3.50;;
8568;SDS011;4322;51.104;-4.162;2022-12-11T19:44:07;3.17;;;3.07;;
8568;SDS011;4322;51.104;-4.162;2022-12-11T19:46:35;2.90;;;2.80;;
8568;SDS011;4322;51.104;-4.162;2022-12-11T19:49:04;3.50;;;3.40;;
8568;SDS011;4322;51.104;-4.162;2022-12-11T19:51:36;3.50;;;3.40;;
8568;SDS011;4322;51.104;-4.162;2022-12-11T19:54:08;3.30;;;3.20;;
8568;SDS011;4322;51.104;-4.162;2022-12-11T19:56:39;2.77;;;2.67;;
8568;SDS011;4322;51.104;-4.162;2022-12-11T19:59:08;2.70;;;2.60;;
8568;SDS011;4322;51.104;-4.162;2022-12-11T20:01:41;3.17;;;3.07;;
8568;SDS011;4322;51.104;-4.162;2022-12-11T20:04:15;3.30;;;3.20;;
8568;SDS011;4322;51.104;-4.162;2022-12-11T20:06:44;3.60;;;3.50;;
8568;SDS011;4322;51.104;-4.162;2022-12-11T20:09:14;3.20;;;3.10;;
8568;SDS011;4322;51.104;-4.162;2022-12-11T20:11:43;4.17;;;3.97;;
8568;SDS011;4322;51.104;-4.162;2022-12-11T20:14:17;4.20;;;4.00;;
8568;SDS011;4322;51.104;-4.162;2022-12-11T20:16:47;3.30;;;3.20;;
8568;SDS011;4322;51.104;-4.162;2022-12-11T20:19:36;3.80;;;3.70;;
8568;SDS011;4322;51.104;-4.162;2022-12-11T20:22:04;3.50;;;3.40;;
8568;SDS011;4322;51.104;-4.162;2022-12-11T20:24:34;3.70;;;3.60;;
8568;SDS011;4322;51.104;-4.162;2022-12-11T20:27:03;3.60;;;3.50;;
8568;SDS011;4322;51.104;-4.162;2022-12-11T20:29:32;4.30;;;4.10;;
8568;SDS011;4322;51.104;-4.162;2022-12-11T20:32:00;3.20;;;3.10;;
8568;SDS011;4322;51.104;-4.162;2022-12-11T20:34:28;3.90;;;3.80;;
8568;SDS011;4322;51.104;-4.162;2022-12-11T20:36:56;3.77;;;3.67;;
8568;SDS011;4322;51.104;-4.162;2022-12-11T20:39:25;3.47;;;3.37;;
8568;SDS011;4322;51.104;-4.162;2022-12-11T20:41:56;3.20;;;3.10;;
8568;SDS011;4322;51.104;-4.162;2022-12-11T20:44:24;3.30;;;3.20;;
8568;SDS011;4322;51.104;-4.162;2022-12-11T20:46:52;3.63;;;3.53;;
8568;SDS011;4322;51.104;-4.162;2022-12-11T20:49:20;3.43;;;3.33;;
8568;SDS011;4322;51.104;-4.162;2022-12-11T20:51:48;3.50;;;3.40;;
8568;SDS011;4322;51.104;-4.162;2022-12-11T20:54:17;3.20;;;3.10;;
8568;SDS011;4322;51.104;-4.162;2022-12-11T20:56:45;3.20;;;3.10;;
8568;SDS011;4322;51.104;-4.162;2022-12-11T20:59:14;3.03;;;2.93;;
8568;SDS011;4322;51.104;-4.162;2022-12-11T21:01:42;2.87;;;2.77;;
8568;SDS011;4322;51.104;-4.162;2022-12-11T21:04:10;3.37;;;3.27;;
8568;SDS011;4322;51.104;-4.162;2022-12-11T21:06:39;3.43;;;3.33;;
8568;SDS011;4322;51.104;-4.162;2022-12-11T21:09:08;3.50;;;3.40;;
8568;SDS011;4322;51.104;-4.162;2022-12-11T21:11:39;3.60;;;3.50;;
8568;SDS011;4322;51.104;-4.162;2022-12-11T21:14:07;3.10;;;3.00;;
8568;SDS011;4322;51.104;-4.162;2022-12-11T21:16:37;3.40;;;3.30;;
8568;SDS011;4322;51.104;-4.162;2022-12-11T21:19:05;3.10;;;3.00;;
8568;SDS011;4322;51.104;-4.162;2022-12-11T21:21:40;3.23;;;3.13;;
8568;SDS011;4322;51.104;-4.162;2022-12-11T21:24:13;3.60;;;3.50;;
8568;SDS011;4322;51.104;-4.162;2022-12-11T21:26:42;3.60;;;3.50;;
8568;SDS011;4322;51.104;-4.162;2022-12-11T21:29:10;3.40;;;3.30;;
8568;SDS011;4322;51.104;-4.162;2022-12-11T21:31:40;3.60;;;3.50;;
8568;SDS011;4322;51.104;-4.162;2022-12-11T21:34:08;3.60;;;3.50;;
8568;SDS011;4322;51.104;-4.162;2022-12-11T21:36:36;3.83;;;3.73;;
8568;SDS011;4322;51.104;-4.162;2022-12-11T21:39:04;3.40;;;3.30;;
8568;SDS011;4322;51.104;-4.162;2022-12-11T21:41:32;3.97;;;3.83;;
8568;SDS011;4322;51.104;-4.162;2022-12-11T21:44:01;4.20;;;4.00;;
8568;SDS011;4322;51.104;-4.162;2022-12-11T21:46:50;4.00;;;3.80;;
8568;SDS011;4322;51.104;-4.162;2022-12-11T21:49:19;3.70;;;3.60;;
8568;SDS011;4322;51.104;-4.162;2022-12-11T21:51:47;3.60;;;3.50;;
8568;SDS011;4322;51.104;-4.162;2022-12-11T21:54:16;3.60;;;3.50;;
8568;SDS011;4322;51.104;-4.162;2022-12-11T21:56:45;3.90;;;3.80;;
8568;SDS011;4322;51.104;-4.162;2022-12-11T21:59:13;3.80;;;3.70;;
8568;SDS011;4322;51.104;-4.162;2022-12-11T22:01:42;3.60;;;3.50;;
8568;SDS011;4322;51.104;-4.162;2022-12-11T22:04:13;3.30;;;3.20;;
8568;SDS011;4322;51.104;-4.162;2022-12-11T22:06:42;3.50;;;3.40;;
8568;SDS011;4322;51.104;-4.162;2022-12-11T22:09:13;3.50;;;3.40;;
